sensor_id;sensor_type;location;lat;lon;timestamp;P1;durP1;ratioP1;P2;durP2;ratioP2
58123;SDS011;46725;48.068;20.832;2022-07-23T00:02:18;9.52;;;5.05;;
58123;SDS011;46725;48.068;20.832;2022-07-23T00:04:44;8.10;;;4.57;;
58123;SDS011;46725;48.068;20.832;2022-07-23T00:07:11;6.40;;;4.30;;
58123;SDS011;46725;48.068;20.832;2022-07-23T00:09:37;8.75;;;5.03;;
58123;SDS011;46725;48.068;20.832;2022-07-23T00:12:03;8.00;;;4.95;;
58123;SDS011;46725;48.068;20.832;2022-07-23T00:14:29;7.95;;;5.40;;
58123;SDS011;46725;48.068;20.832;2022-07-23T00:16:55;6.78;;;5.03;;
58123;SDS011;46725;48.068;20.832;2022-07-23T00:19:21;6.18;;;4.40;;
58123;SDS011;46725;48.068;20.832;2022-07-23T00:21:47;6.78;;;4.68;;
58123;SDS011;46725;48.068;20.832;2022-07-23T00:24:13;8.70;;;5.03;;
58123;SDS011;46725;48.068;20.832;2022-07-23T00:26:39;10.77;;;5.70;;
58123;SDS011;46725;48.068;20.832;2022-07-23T00:29:06;10.15;;;5.78;;
58123;SDS011;46725;48.068;20.832;2022-07-23T00:31:32;8.07;;;4.88;;
58123;SDS011;46725;48.068;20.832;2022-07-23T00:33:58;9.77;;;5.30;;
58123;SDS011;46725;48.068;20.832;2022-07-23T00:36:26;8.30;;;5.38;;
58123;SDS011;46725;48.068;20.832;2022-07-23T00:38:52;7.97;;;5.10;;
58123;SDS011;46725;48.068;20.832;2022-07-23T00:41:18;8.23;;;5.03;;
58123;SDS011;46725;48.068;20.832;2022-07-23T00:43:44;11.40;;;5.75;;
58123;SDS011;46725;48.068;20.832;2022-07-23T00:46:10;7.13;;;4.85;;
58123;SDS011;46725;48.068;20.832;2022-07-23T00:48:37;8.98;;;5.68;;
58123;SDS011;46725;48.068;20.832;2022-07-23T00:51:03;7.07;;;5.00;;
58123;SDS011;46725;48.068;20.832;2022-07-23T00:53:29;8.23;;;5.25;;
58123;SDS011;46725;48.068;20.832;2022-07-23T00:55:56;9.77;;;5.70;;
58123;SDS011;46725;48.068;20.832;2022-07-23T00:58:24;10.63;;;5.55;;
58123;SDS011;46725;48.068;20.832;2022-07-23T01:00:50;8.82;;;5.20;;
58123;SDS011;46725;48.068;20.832;2022-07-23T01:03:16;7.13;;;4.85;;
58123;SDS011;46725;48.068;20.832;2022-07-23T01:05:42;9.40;;;5.35;;
58123;SDS011;46725;48.068;20.832;2022-07-23T01:08:08;8.57;;;4.95;;
58123;SDS011;46725;48.068;20.832;2022-07-23T01:10:34;8.18;;;5.30;;
58123;SDS011;46725;48.068;20.832;2022-07-23T01:13:04;8.60;;;5.38;;
58123;SDS011;46725;48.068;20.832;2022-07-23T01:15:31;14.65;;;5.72;;
58123;SDS011;46725;48.068;20.832;2022-07-23T01:17:57;9.00;;;4.63;;
58123;SDS011;46725;48.068;20.832;2022-07-23T01:20:23;15.10;;;5.20;;
58123;SDS011;46725;48.068;20.832;2022-07-23T01:22:50;8.52;;;4.68;;
58123;SDS011;46725;48.068;20.832;2022-07-23T01:25:16;9.07;;;5.30;;
58123;SDS011;46725;48.068;20.832;2022-07-23T01:27:43;13.35;;;6.30;;
58123;SDS011;46725;48.068;20.832;2022-07-23T01:30:09;14.45;;;5.63;;
58123;SDS011;46725;48.068;20.832;2022-07-23T01:32:35;9.55;;;5.95;;
58123;SDS011;46725;48.068;20.832;2022-07-23T01:35:02;11.57;;;6.40;;
58123;SDS011;46725;48.068;20.832;2022-07-23T01:37:28;10.70;;;5.82;;
58123;SDS011;46725;48.068;20.832;2022-07-23T01:39:54;9.57;;;6.53;;
58123;SDS011;46725;48.068;20.832;2022-07-23T01:42:20;12.70;;;5.90;;
58123;SDS011;46725;48.068;20.832;2022-07-23T01:44:46;8.75;;;6.85;;
58123;SDS011;46725;48.068;20.832;2022-07-23T01:47:12;10.13;;;6.32;;
58123;SDS011;46725;48.068;20.832;2022-07-23T01:49:38;10.18;;;6.50;;
58123;SDS011;46725;48.068;20.832;2022-07-23T01:52:04;11.40;;;6.43;;
58123;SDS011;46725;48.068;20.832;2022-07-23T01:54:34;9.25;;;6.07;;
58123;SDS011;46725;48.068;20.832;2022-07-23T01:57:00;10.43;;;6.13;;
58123;SDS011;46725;48.068;20.832;2022-07-23T01:59:27;11.15;;;6.93;;
58123;SDS011;46725;48.068;20.832;2022-07-23T02:01:53;8.88;;;6.55;;
58123;SDS011;46725;48.068;20.832;2022-07-23T02:04:19;12.48;;;6.53;;
58123;SDS011;46725;48.068;20.832;2022-07-23T02:06:46;8.77;;;6.40;;
58123;SDS011;46725;48.068;20.832;2022-07-23T02:09:12;11.68;;;6.85;;
58123;SDS011;46725;48.068;20.832;2022-07-23T02:11:38;12.98;;;7.28;;
58123;SDS011;46725;48.068;20.832;2022-07-23T02:14:04;10.95;;;7.00;;
58123;SDS011;46725;48.068;20.832;2022-07-23T02:16:30;11.77;;;7.40;;
58123;SDS011;46725;48.068;20.832;2022-07-23T02:18:57;12.55;;;7.68;;
58123;SDS011;46725;48.068;20.832;2022-07-23T02:21:23;9.43;;;7.43;;
58123;SDS011;46725;48.068;20.832;2022-07-23T02:23:49;10.48;;;7.47;;
58123;SDS011;46725;48.068;20.832;2022-07-23T02:26:15;10.20;;;7.78;;
58123;SDS011;46725;48.068;20.832;2022-07-23T02:28:41;10.88;;;6.90;;
58123;SDS011;46725;48.068;20.832;2022-07-23T02:31:07;9.52;;;7.38;;
58123;SDS011;46725;48.068;20.832;2022-07-23T02:33:33;13.88;;;7.95;;
58123;SDS011;46725;48.068;20.832;2022-07-23T02:35:59;10.85;;;7.47;;
58123;SDS011;46725;48.068;20.832;2022-07-23T02:38:25;10.65;;;7.90;;
58123;SDS011;46725;48.068;20.832;2022-07-23T02:40:51;11.73;;;7.82;;
58123;SDS011;46725;48.068;20.832;2022-07-23T02:43:17;11.60;;;7.78;;
58123;SDS011;46725;48.068;20.832;2022-07-23T02:45:43;12.13;;;7.75;;
58123;SDS011;46725;48.068;20.832;2022-07-23T02:48:09;11.98;;;7.97;;
58123;SDS011;46725;48.068;20.832;2022-07-23T02:50:37;15.43;;;8.95;;
58123;SDS011;46725;48.068;20.832;2022-07-23T02:53:04;14.02;;;8.18;;
58123;SDS011;46725;48.068;20.832;2022-07-23T02:55:30;16.17;;;8.80;;
58123;SDS011;46725;48.068;20.832;2022-07-23T02:57:56;13.35;;;8.40;;
58123;SDS011;46725;48.068;20.832;2022-07-23T03:00:22;13.57;;;9.02;;
58123;SDS011;46725;48.068;20.832;2022-07-23T03:02:49;13.25;;;8.65;;
58123;SDS011;46725;48.068;20.832;2022-07-23T03:05:15;14.98;;;9.00;;
58123;SDS011;46725;48.068;20.832;2022-07-23T03:07:41;13.80;;;8.75;;
58123;SDS011;46725;48.068;20.832;2022-07-23T03:10:07;13.63;;;8.50;;
58123;SDS011;46725;48.068;20.832;2022-07-23T03:12:33;14.55;;;8.57;;
58123;SDS011;46725;48.068;20.832;2022-07-23T03:14:59;13.45;;;9.00;;
58123;SDS011;46725;48.068;20.832;2022-07-23T03:17:25;13.13;;;9.10;;
58123;SDS011;46725;48.068;20.832;2022-07-23T03:19:51;19.70;;;8.90;;
58123;SDS011;46725;48.068;20.832;2022-07-23T03:22:17;13.77;;;8.75;;
58123;SDS011;46725;48.068;20.832;2022-07-23T03:24:43;12.63;;;8.30;;
58123;SDS011;46725;48.068;20.832;2022-07-23T03:27:19;12.95;;;7.90;;
58123;SDS011;46725;48.068;20.832;2022-07-23T03:29:46;12.05;;;7.63;;
58123;SDS011;46725;48.068;20.832;2022-07-23T03:32:12;13.07;;;8.40;;
58123;SDS011;46725;48.068;20.832;2022-07-23T03:34:38;12.85;;;8.23;;
58123;SDS011;46725;48.068;20.832;2022-07-23T03:37:04;11.10;;;7.88;;
58123;SDS011;46725;48.068;20.832;2022-07-23T03:39:30;12.13;;;8.07;;
58123;SDS011;46725;48.068;20.832;2022-07-23T03:41:56;12.93;;;8.10;;
58123;SDS011;46725;48.068;20.832;2022-07-23T03:44:22;12.15;;;7.68;;
58123;SDS011;46725;48.068;20.832;2022-07-23T03:46:49;10.77;;;7.50;;
58123;SDS011;46725;48.068;20.832;2022-07-23T03:49:15;13.75;;;7.43;;
58123;SDS011;46725;48.068;20.832;2022-07-23T03:51:41;9.60;;;7.40;;
58123;SDS011;46725;48.068;20.832;2022-07-23T03:54:07;12.55;;;8.20;;
58123;SDS011;46725;48.068;20.832;2022-07-23T03:56:33;12.80;;;8.32;;
58123;SDS011;46725;48.068;20.832;2022-07-23T03:59:00;12.02;;;8.60;;
58123;SDS011;46725;48.068;20.832;2022-07-23T04:01:26;16.00;;;7.95;;
58123;SDS011;46725;48.068;20.832;2022-07-23T04:03:52;12.35;;;7.45;;
58123;SDS011;46725;48.068;20.832;2022-07-23T04:06:18;12.50;;;7.57;;
58123;SDS011;46725;48.068;20.832;2022-07-23T04:08:44;14.63;;;7.60;;
58123;SDS011;46725;48.068;20.832;2022-07-23T04:11:10;12.85;;;8.18;;
58123;SDS011;46725;48.068;20.832;2022-07-23T04:13:36;11.68;;;7.57;;
58123;SDS011;46725;48.068;20.832;2022-07-23T04:16:02;13.30;;;8.05;;
58123;SDS011;46725;48.068;20.832;2022-07-23T04:18:29;13.90;;;8.32;;
58123;SDS011;46725;48.068;20.832;2022-07-23T04:20:55;15.13;;;7.95;;
58123;SDS011;46725;48.068;20.832;2022-07-23T04:23:21;14.02;;;7.88;;
58123;SDS011;46725;48.068;20.832;2022-07-23T04:25:47;14.77;;;8.02;;
58123;SDS011;46725;48.068;20.832;2022-07-23T04:28:13;12.13;;;7.07;;
58123;SDS011;46725;48.068;20.832;2022-07-23T04:30:39;19.65;;;9.25;;
58123;SDS011;46725;48.068;20.832;2022-07-23T04:33:05;13.32;;;7.93;;
58123;SDS011;46725;48.068;20.832;2022-07-23T04:35:32;13.05;;;8.80;;
58123;SDS011;46725;48.068;20.832;2022-07-23T04:37:58;13.75;;;7.70;;
58123;SDS011;46725;48.068;20.832;2022-07-23T04:40:24;13.68;;;8.68;;
58123;SDS011;46725;48.068;20.832;2022-07-23T04:42:50;20.48;;;9.65;;
58123;SDS011;46725;48.068;20.832;2022-07-23T04:45:16;15.10;;;8.52;;
58123;SDS011;46725;48.068;20.832;2022-07-23T04:47:43;12.65;;;8.23;;
58123;SDS011;46725;48.068;20.832;2022-07-23T04:50:09;12.60;;;7.72;;
58123;SDS011;46725;48.068;20.832;2022-07-23T04:52:35;14.95;;;8.27;;
58123;SDS011;46725;48.068;20.832;2022-07-23T04:55:01;15.65;;;7.38;;
58123;SDS011;46725;48.068;20.832;2022-07-23T04:57:27;12.98;;;8.40;;
58123;SDS011;46725;48.068;20.832;2022-07-23T04:59:53;14.80;;;8.02;;
58123;SDS011;46725;48.068;20.832;2022-07-23T05:02:19;13.88;;;8.40;;
58123;SDS011;46725;48.068;20.832;2022-07-23T05:04:45;16.50;;;8.00;;
58123;SDS011;46725;48.068;20.832;2022-07-23T05:07:11;12.13;;;7.60;;
58123;SDS011;46725;48.068;20.832;2022-07-23T05:09:38;12.43;;;8.50;;
58123;SDS011;46725;48.068;20.832;2022-07-23T05:12:04;11.02;;;7.38;;
58123;SDS011;46725;48.068;20.832;2022-07-23T05:14:30;12.88;;;7.30;;
58123;SDS011;46725;48.068;20.832;2022-07-23T05:16:56;14.40;;;7.90;;
58123;SDS011;46725;48.068;20.832;2022-07-23T05:19:22;13.38;;;8.00;;
58123;SDS011;46725;48.068;20.832;2022-07-23T05:21:48;13.77;;;7.72;;
58123;SDS011;46725;48.068;20.832;2022-07-23T05:24:14;17.20;;;8.05;;
58123;SDS011;46725;48.068;20.832;2022-07-23T05:26:40;14.60;;;8.70;;
58123;SDS011;46725;48.068;20.832;2022-07-23T05:29:07;15.25;;;8.02;;
58123;SDS011;46725;48.068;20.832;2022-07-23T05:31:33;16.75;;;8.10;;
58123;SDS011;46725;48.068;20.832;2022-07-23T05:33:59;18.15;;;8.70;;
58123;SDS011;46725;48.068;20.832;2022-07-23T05:36:25;14.52;;;7.47;;
58123;SDS011;46725;48.068;20.832;2022-07-23T05:38:51;15.82;;;8.73;;
58123;SDS011;46725;48.068;20.832;2022-07-23T05:41:17;14.95;;;7.82;;
58123;SDS011;46725;48.068;20.832;2022-07-23T05:43:43;15.18;;;7.57;;
58123;SDS011;46725;48.068;20.832;2022-07-23T05:46:09;15.75;;;7.90;;
58123;SDS011;46725;48.068;20.832;2022-07-23T05:48:35;15.13;;;7.63;;
58123;SDS011;46725;48.068;20.832;2022-07-23T05:51:01;14.30;;;7.78;;
58123;SDS011;46725;48.068;20.832;2022-07-23T05:53:31;16.88;;;7.57;;
58123;SDS011;46725;48.068;20.832;2022-07-23T05:55:57;17.15;;;8.48;;
58123;SDS011;46725;48.068;20.832;2022-07-23T05:58:23;14.45;;;7.25;;
58123;SDS011;46725;48.068;20.832;2022-07-23T06:00:49;14.80;;;8.00;;
58123;SDS011;46725;48.068;20.832;2022-07-23T06:03:15;13.80;;;7.68;;
58123;SDS011;46725;48.068;20.832;2022-07-23T06:05:41;13.18;;;7.72;;
58123;SDS011;46725;48.068;20.832;2022-07-23T06:08:07;14.43;;;7.65;;
58123;SDS011;46725;48.068;20.832;2022-07-23T06:10:33;16.23;;;7.20;;
58123;SDS011;46725;48.068;20.832;2022-07-23T06:12:59;13.20;;;7.13;;
58123;SDS011;46725;48.068;20.832;2022-07-23T06:15:25;16.60;;;8.05;;
58123;SDS011;46725;48.068;20.832;2022-07-23T06:17:51;13.25;;;6.72;;
58123;SDS011;46725;48.068;20.832;2022-07-23T06:20:17;14.70;;;6.80;;
58123;SDS011;46725;48.068;20.832;2022-07-23T06:22:43;16.02;;;7.30;;
58123;SDS011;46725;48.068;20.832;2022-07-23T06:25:09;12.27;;;7.05;;
58123;SDS011;46725;48.068;20.832;2022-07-23T06:27:35;12.48;;;7.15;;
58123;SDS011;46725;48.068;20.832;2022-07-23T06:30:01;13.27;;;7.00;;
58123;SDS011;46725;48.068;20.832;2022-07-23T06:32:28;15.73;;;6.63;;
58123;SDS011;46725;48.068;20.832;2022-07-23T06:34:54;11.57;;;6.68;;
58123;SDS011;46725;48.068;20.832;2022-07-23T06:37:20;12.50;;;7.10;;
58123;SDS011;46725;48.068;20.832;2022-07-23T06:39:46;13.02;;;7.00;;
58123;SDS011;46725;48.068;20.832;2022-07-23T06:42:12;11.68;;;6.32;;
58123;SDS011;46725;48.068;20.832;2022-07-23T06:44:38;11.70;;;6.22;;
58123;SDS011;46725;48.068;20.832;2022-07-23T06:47:07;11.52;;;6.20;;
58123;SDS011;46725;48.068;20.832;2022-07-23T06:49:33;17.15;;;6.68;;
58123;SDS011;46725;48.068;20.832;2022-07-23T06:51:59;16.42;;;7.10;;
58123;SDS011;46725;48.068;20.832;2022-07-23T06:54:25;12.85;;;6.78;;
58123;SDS011;46725;48.068;20.832;2022-07-23T06:56:51;16.13;;;6.85;;
58123;SDS011;46725;48.068;20.832;2022-07-23T06:59:17;14.77;;;7.45;;
58123;SDS011;46725;48.068;20.832;2022-07-23T07:01:43;13.85;;;7.38;;
58123;SDS011;46725;48.068;20.832;2022-07-23T07:04:09;17.23;;;7.30;;
58123;SDS011;46725;48.068;20.832;2022-07-23T07:06:35;14.15;;;7.38;;
58123;SDS011;46725;48.068;20.832;2022-07-23T07:09:02;16.27;;;6.97;;
58123;SDS011;46725;48.068;20.832;2022-07-23T07:11:28;11.25;;;7.20;;
58123;SDS011;46725;48.068;20.832;2022-07-23T07:13:54;13.15;;;6.45;;
58123;SDS011;46725;48.068;20.832;2022-07-23T07:16:20;18.90;;;7.30;;
58123;SDS011;46725;48.068;20.832;2022-07-23T07:18:46;14.98;;;7.10;;
58123;SDS011;46725;48.068;20.832;2022-07-23T07:21:12;13.43;;;6.72;;
58123;SDS011;46725;48.068;20.832;2022-07-23T07:23:38;13.00;;;6.28;;
58123;SDS011;46725;48.068;20.832;2022-07-23T07:26:04;16.52;;;6.80;;
58123;SDS011;46725;48.068;20.832;2022-07-23T07:28:30;12.93;;;6.38;;
58123;SDS011;46725;48.068;20.832;2022-07-23T07:30:56;18.50;;;7.55;;
58123;SDS011;46725;48.068;20.832;2022-07-23T07:33:22;12.98;;;6.80;;
58123;SDS011;46725;48.068;20.832;2022-07-23T07:35:48;15.05;;;6.65;;
58123;SDS011;46725;48.068;20.832;2022-07-23T07:38:14;12.38;;;6.78;;
58123;SDS011;46725;48.068;20.832;2022-07-23T07:40:41;15.45;;;6.13;;
58123;SDS011;46725;48.068;20.832;2022-07-23T07:43:07;10.52;;;6.43;;
58123;SDS011;46725;48.068;20.832;2022-07-23T07:45:33;12.80;;;6.22;;
58123;SDS011;46725;48.068;20.832;2022-07-23T07:47:59;9.57;;;6.15;;
58123;SDS011;46725;48.068;20.832;2022-07-23T07:50:25;13.20;;;6.35;;
58123;SDS011;46725;48.068;20.832;2022-07-23T07:52:51;11.63;;;6.35;;
58123;SDS011;46725;48.068;20.832;2022-07-23T07:55:17;11.98;;;6.60;;
58123;SDS011;46725;48.068;20.832;2022-07-23T07:57:43;10.25;;;6.07;;
58123;SDS011;46725;48.068;20.832;2022-07-23T08:00:10;15.40;;;6.38;;
58123;SDS011;46725;48.068;20.832;2022-07-23T08:02:40;14.00;;;5.88;;
58123;SDS011;46725;48.068;20.832;2022-07-23T08:05:06;12.18;;;5.93;;
58123;SDS011;46725;48.068;20.832;2022-07-23T08:07:32;8.07;;;5.20;;
58123;SDS011;46725;48.068;20.832;2022-07-23T08:09:59;11.93;;;5.78;;
58123;SDS011;46725;48.068;20.832;2022-07-23T08:12:25;12.15;;;5.80;;
58123;SDS011;46725;48.068;20.832;2022-07-23T08:14:51;12.35;;;5.47;;
58123;SDS011;46725;48.068;20.832;2022-07-23T08:17:17;12.38;;;5.82;;
58123;SDS011;46725;48.068;20.832;2022-07-23T08:19:43;10.73;;;5.63;;
58123;SDS011;46725;48.068;20.832;2022-07-23T08:22:09;8.48;;;5.60;;
58123;SDS011;46725;48.068;20.832;2022-07-23T08:24:36;12.68;;;5.82;;
58123;SDS011;46725;48.068;20.832;2022-07-23T08:27:02;9.75;;;5.18;;
58123;SDS011;46725;48.068;20.832;2022-07-23T08:29:28;11.60;;;5.70;;
58123;SDS011;46725;48.068;20.832;2022-07-23T08:31:54;8.02;;;5.70;;
58123;SDS011;46725;48.068;20.832;2022-07-23T08:34:20;11.32;;;6.30;;
58123;SDS011;46725;48.068;20.832;2022-07-23T08:36:46;9.73;;;5.15;;
58123;SDS011;46725;48.068;20.832;2022-07-23T08:39:12;16.95;;;6.63;;
58123;SDS011;46725;48.068;20.832;2022-07-23T08:41:39;9.90;;;5.20;;
58123;SDS011;46725;48.068;20.832;2022-07-23T08:44:07;11.98;;;5.82;;
58123;SDS011;46725;48.068;20.832;2022-07-23T08:46:34;9.35;;;4.80;;
58123;SDS011;46725;48.068;20.832;2022-07-23T08:49:00;6.85;;;4.60;;
58123;SDS011;46725;48.068;20.832;2022-07-23T08:51:26;9.68;;;5.32;;
58123;SDS011;46725;48.068;20.832;2022-07-23T08:53:53;8.57;;;4.90;;
58123;SDS011;46725;48.068;20.832;2022-07-23T08:56:19;8.70;;;4.78;;
58123;SDS011;46725;48.068;20.832;2022-07-23T08:58:45;9.68;;;5.72;;
58123;SDS011;46725;48.068;20.832;2022-07-23T09:01:11;11.93;;;5.20;;
58123;SDS011;46725;48.068;20.832;2022-07-23T09:03:37;10.55;;;5.22;;
58123;SDS011;46725;48.068;20.832;2022-07-23T09:06:04;9.18;;;5.88;;
58123;SDS011;46725;48.068;20.832;2022-07-23T09:08:34;10.10;;;4.70;;
58123;SDS011;46725;48.068;20.832;2022-07-23T09:11:01;9.15;;;4.85;;
58123;SDS011;46725;48.068;20.832;2022-07-23T09:13:29;9.48;;;4.65;;
58123;SDS011;46725;48.068;20.832;2022-07-23T09:15:56;9.60;;;4.90;;
58123;SDS011;46725;48.068;20.832;2022-07-23T13:56:19;5.60;;;3.20;;
58123;SDS011;46725;48.068;20.832;2022-07-23T13:58:45;6.13;;;3.40;;
58123;SDS011;46725;48.068;20.832;2022-07-23T14:01:11;10.13;;;3.53;;
58123;SDS011;46725;48.068;20.832;2022-07-23T14:03:37;8.60;;;3.28;;
58123;SDS011;46725;48.068;20.832;2022-07-23T14:06:04;7.22;;;3.53;;
58123;SDS011;46725;48.068;20.832;2022-07-23T14:08:30;8.57;;;3.30;;
58123;SDS011;46725;48.068;20.832;2022-07-23T14:10:56;6.10;;;3.42;;
58123;SDS011;46725;48.068;20.832;2022-07-23T14:13:23;4.88;;;2.92;;
58123;SDS011;46725;48.068;20.832;2022-07-23T14:15:49;7.05;;;2.83;;
58123;SDS011;46725;48.068;20.832;2022-07-23T14:18:15;5.68;;;3.15;;
58123;SDS011;46725;48.068;20.832;2022-07-23T14:20:41;4.70;;;3.30;;
58123;SDS011;46725;48.068;20.832;2022-07-23T14:23:07;5.90;;;3.55;;
58123;SDS011;46725;48.068;20.832;2022-07-23T14:25:34;5.82;;;3.25;;
58123;SDS011;46725;48.068;20.832;2022-07-23T14:28:00;4.63;;;2.92;;
58123;SDS011;46725;48.068;20.832;2022-07-23T14:30:26;5.18;;;3.00;;
58123;SDS011;46725;48.068;20.832;2022-07-23T14:32:52;5.22;;;3.20;;
58123;SDS011;46725;48.068;20.832;2022-07-23T14:35:19;8.63;;;3.20;;
58123;SDS011;46725;48.068;20.832;2022-07-23T14:37:45;6.35;;;3.35;;
58123;SDS011;46725;48.068;20.832;2022-07-23T14:40:11;6.47;;;3.28;;
58123;SDS011;46725;48.068;20.832;2022-07-23T14:42:37;6.60;;;3.25;;
58123;SDS011;46725;48.068;20.832;2022-07-23T14:45:03;8.20;;;3.25;;
58123;SDS011;46725;48.068;20.832;2022-07-23T14:47:31;4.80;;;3.58;;
58123;SDS011;46725;48.068;20.832;2022-07-23T14:49:57;5.30;;;3.30;;
58123;SDS011;46725;48.068;20.832;2022-07-23T14:52:23;9.00;;;3.63;;
58123;SDS011;46725;48.068;20.832;2022-07-23T14:54:49;5.72;;;3.03;;
58123;SDS011;46725;48.068;20.832;2022-07-23T14:57:15;5.82;;;3.22;;
58123;SDS011;46725;48.068;20.832;2022-07-23T14:59:41;5.75;;;3.45;;
58123;SDS011;46725;48.068;20.832;2022-07-23T15:02:08;9.40;;;3.50;;
58123;SDS011;46725;48.068;20.832;2022-07-23T15:04:34;4.95;;;2.88;;
58123;SDS011;46725;48.068;20.832;2022-07-23T15:07:00;6.47;;;3.00;;
58123;SDS011;46725;48.068;20.832;2022-07-23T15:09:26;5.45;;;2.92;;
58123;SDS011;46725;48.068;20.832;2022-07-23T15:11:52;4.97;;;3.15;;
58123;SDS011;46725;48.068;20.832;2022-07-23T15:14:18;6.00;;;3.00;;
58123;SDS011;46725;48.068;20.832;2022-07-23T15:36:12;7.57;;;3.63;;
58123;SDS011;46725;48.068;20.832;2022-07-23T15:38:38;6.38;;;3.45;;
58123;SDS011;46725;48.068;20.832;2022-07-23T15:41:04;5.13;;;3.33;;
58123;SDS011;46725;48.068;20.832;2022-07-23T15:43:30;9.45;;;4.25;;
58123;SDS011;46725;48.068;20.832;2022-07-23T16:15:07;8.77;;;5.00;;
58123;SDS011;46725;48.068;20.832;2022-07-23T16:17:34;8.20;;;4.65;;
58123;SDS011;46725;48.068;20.832;2022-07-23T16:20:00;6.72;;;4.28;;
58123;SDS011;46725;48.068;20.832;2022-07-23T16:22:26;10.43;;;5.10;;
58123;SDS011;46725;48.068;20.832;2022-07-23T16:24:52;8.55;;;5.15;;
58123;SDS011;46725;48.068;20.832;2022-07-23T17:20:50;10.30;;;5.65;;
58123;SDS011;46725;48.068;20.832;2022-07-23T17:23:16;8.70;;;5.47;;
58123;SDS011;46725;48.068;20.832;2022-07-23T17:25:42;10.20;;;5.88;;
58123;SDS011;46725;48.068;20.832;2022-07-23T17:28:08;7.93;;;5.00;;
58123;SDS011;46725;48.068;20.832;2022-07-23T17:30:34;7.20;;;5.00;;
58123;SDS011;46725;48.068;20.832;2022-07-23T17:33:00;10.90;;;5.82;;
58123;SDS011;46725;48.068;20.832;2022-07-23T17:35:26;12.90;;;5.40;;
58123;SDS011;46725;48.068;20.832;2022-07-23T17:37:52;7.72;;;5.07;;
58123;SDS011;46725;48.068;20.832;2022-07-23T17:40:21;8.00;;;5.50;;
58123;SDS011;46725;48.068;20.832;2022-07-23T17:42:47;10.00;;;5.40;;
58123;SDS011;46725;48.068;20.832;2022-07-23T17:45:13;13.20;;;5.57;;
58123;SDS011;46725;48.068;20.832;2022-07-23T17:47:44;9.73;;;6.32;;
58123;SDS011;46725;48.068;20.832;2022-07-23T17:50:13;13.07;;;7.93;;
58123;SDS011;46725;48.068;20.832;2022-07-23T17:52:52;12.43;;;8.02;;
58123;SDS011;46725;48.068;20.832;2022-07-23T17:55:20;11.20;;;7.75;;
58123;SDS011;46725;48.068;20.832;2022-07-23T17:57:46;15.38;;;7.70;;
58123;SDS011;46725;48.068;20.832;2022-07-23T18:00:13;10.00;;;6.68;;
58123;SDS011;46725;48.068;20.832;2022-07-23T18:02:39;9.48;;;5.43;;
58123;SDS011;46725;48.068;20.832;2022-07-23T18:05:06;10.48;;;5.65;;
58123;SDS011;46725;48.068;20.832;2022-07-23T18:07:32;11.70;;;5.85;;
58123;SDS011;46725;48.068;20.832;2022-07-23T18:09:58;16.25;;;5.88;;
58123;SDS011;46725;48.068;20.832;2022-07-23T18:12:24;11.65;;;5.45;;
58123;SDS011;46725;48.068;20.832;2022-07-23T18:14:51;8.68;;;5.30;;
58123;SDS011;46725;48.068;20.832;2022-07-23T18:17:17;10.15;;;5.80;;
58123;SDS011;46725;48.068;20.832;2022-07-23T18:19:43;8.88;;;5.57;;
58123;SDS011;46725;48.068;20.832;2022-07-23T18:22:10;9.60;;;5.90;;
58123;SDS011;46725;48.068;20.832;2022-07-23T18:24:36;13.00;;;5.80;;
58123;SDS011;46725;48.068;20.832;2022-07-23T18:27:03;9.25;;;5.57;;
58123;SDS011;46725;48.068;20.832;2022-07-23T18:29:29;7.50;;;5.18;;
58123;SDS011;46725;48.068;20.832;2022-07-23T18:31:55;6.80;;;4.70;;
58123;SDS011;46725;48.068;20.832;2022-07-23T18:34:21;9.25;;;4.50;;
58123;SDS011;46725;48.068;20.832;2022-07-23T18:36:47;10.25;;;4.47;;
58123;SDS011;46725;48.068;20.832;2022-07-23T18:39:14;11.70;;;4.50;;
58123;SDS011;46725;48.068;20.832;2022-07-23T18:41:40;35.00;;;6.32;;
58123;SDS011;46725;48.068;20.832;2022-07-23T18:44:06;11.77;;;5.15;;
58123;SDS011;46725;48.068;20.832;2022-07-23T18:46:32;10.25;;;5.38;;
58123;SDS011;46725;48.068;20.832;2022-07-23T18:48:58;9.20;;;4.88;;
58123;SDS011;46725;48.068;20.832;2022-07-23T18:51:25;8.80;;;5.90;;
58123;SDS011;46725;48.068;20.832;2022-07-23T18:53:51;13.13;;;5.70;;
58123;SDS011;46725;48.068;20.832;2022-07-23T18:56:17;9.10;;;6.20;;
58123;SDS011;46725;48.068;20.832;2022-07-23T18:58:44;11.75;;;5.60;;
58123;SDS011;46725;48.068;20.832;2022-07-23T19:01:10;16.60;;;6.65;;
58123;SDS011;46725;48.068;20.832;2022-07-23T19:03:37;10.90;;;5.97;;
58123;SDS011;46725;48.068;20.832;2022-07-23T19:06:03;7.55;;;5.38;;
58123;SDS011;46725;48.068;20.832;2022-07-23T19:08:30;10.95;;;5.90;;
58123;SDS011;46725;48.068;20.832;2022-07-23T19:10:56;10.90;;;5.65;;
58123;SDS011;46725;48.068;20.832;2022-07-23T19:13:22;9.18;;;5.97;;
58123;SDS011;46725;48.068;20.832;2022-07-23T19:15:48;9.13;;;6.10;;
58123;SDS011;46725;48.068;20.832;2022-07-23T19:18:15;11.95;;;6.35;;
58123;SDS011;46725;48.068;20.832;2022-07-23T19:20:41;13.35;;;6.53;;
58123;SDS011;46725;48.068;20.832;2022-07-23T19:23:07;12.73;;;6.45;;
58123;SDS011;46725;48.068;20.832;2022-07-23T19:25:33;13.25;;;7.43;;
58123;SDS011;46725;48.068;20.832;2022-07-23T19:27:59;12.95;;;7.05;;
58123;SDS011;46725;48.068;20.832;2022-07-23T19:30:25;11.52;;;6.88;;
58123;SDS011;46725;48.068;20.832;2022-07-23T19:32:51;10.05;;;6.75;;
58123;SDS011;46725;48.068;20.832;2022-07-23T19:35:17;11.85;;;7.13;;
58123;SDS011;46725;48.068;20.832;2022-07-23T19:37:43;10.90;;;7.43;;
58123;SDS011;46725;48.068;20.832;2022-07-23T19:40:09;9.95;;;6.72;;
58123;SDS011;46725;48.068;20.832;2022-07-23T19:42:36;13.23;;;6.25;;
58123;SDS011;46725;48.068;20.832;2022-07-23T19:45:04;9.63;;;7.40;;
58123;SDS011;46725;48.068;20.832;2022-07-23T19:47:30;8.77;;;7.13;;
58123;SDS011;46725;48.068;20.832;2022-07-23T19:49:56;11.93;;;7.35;;
58123;SDS011;46725;48.068;20.832;2022-07-23T19:52:23;12.32;;;8.05;;
58123;SDS011;46725;48.068;20.832;2022-07-23T19:54:50;9.15;;;6.97;;
58123;SDS011;46725;48.068;20.832;2022-07-23T19:57:16;10.65;;;7.65;;
58123;SDS011;46725;48.068;20.832;2022-07-23T19:59:42;14.65;;;8.50;;
58123;SDS011;46725;48.068;20.832;2022-07-23T20:02:08;11.68;;;7.78;;
58123;SDS011;46725;48.068;20.832;2022-07-23T20:04:34;13.85;;;8.45;;
58123;SDS011;46725;48.068;20.832;2022-07-23T20:07:00;13.35;;;8.57;;
58123;SDS011;46725;48.068;20.832;2022-07-23T20:09:26;16.02;;;8.73;;
58123;SDS011;46725;48.068;20.832;2022-07-23T20:11:52;16.45;;;8.35;;
58123;SDS011;46725;48.068;20.832;2022-07-23T20:14:18;11.15;;;7.38;;
58123;SDS011;46725;48.068;20.832;2022-07-23T20:16:44;10.13;;;7.25;;
58123;SDS011;46725;48.068;20.832;2022-07-23T20:19:10;11.13;;;7.95;;
58123;SDS011;46725;48.068;20.832;2022-07-23T20:21:37;11.07;;;7.60;;
58123;SDS011;46725;48.068;20.832;2022-07-23T20:24:09;10.80;;;7.53;;
58123;SDS011;46725;48.068;20.832;2022-07-23T20:26:37;11.27;;;7.90;;
58123;SDS011;46725;48.068;20.832;2022-07-23T20:29:03;12.30;;;7.95;;
58123;SDS011;46725;48.068;20.832;2022-07-23T20:31:29;12.05;;;7.75;;
58123;SDS011;46725;48.068;20.832;2022-07-23T20:33:55;11.32;;;8.43;;
58123;SDS011;46725;48.068;20.832;2022-07-23T20:36:21;14.73;;;8.52;;
58123;SDS011;46725;48.068;20.832;2022-07-23T20:38:47;12.05;;;8.55;;
58123;SDS011;46725;48.068;20.832;2022-07-23T20:41:13;13.35;;;9.02;;